Independence, Oregon
Current Conditions -  °F | °C
As of 11:56 AM on Saturday 25 Oct 2014 (Local Time) from KSLE Reporting Station
Overcast Overcast  
Wind Chill: 63°   Ceiling: 5500
Heat Index: 63°   Visibility: 10mi
Dew Point: 49°   Wind: 23mph
Humidity: 60%   Direction: 190°S
Pressure: 29.38"   Gusts: 33mph
Location:  44.85°N, 123.19°W
Report Text: KSLE 251856Z 19020G29KT 10SM BKN055 OVC070 17/09 A2938 RMK AO2 PK WND 18029/1856 SLP949 T01720094
Loading
Personal Weather Stations






























Interactive Weather Map
Tropical Storm Tracking
New forecast layout! Learn more

10-Day Weather Forecast

Advertisements
Track Severe Weather on mobile